createdAt,value
2022-10-28T00:00:30.024Z,3.53
2022-10-28T00:02:57.175Z,3.10
2022-10-28T00:05:23.870Z,3.25
2022-10-28T00:07:50.521Z,3.08
2022-10-28T00:10:17.146Z,3.67
2022-10-28T00:12:43.542Z,3.50
2022-10-28T00:15:10.056Z,3.83
2022-10-28T00:17:36.477Z,3.58
2022-10-28T00:20:03.764Z,4.03
2022-10-28T00:22:30.179Z,3.33
2022-10-28T00:24:56.609Z,3.45
2022-10-28T00:27:23.030Z,3.50
2022-10-28T00:29:49.473Z,3.65
2022-10-28T00:32:15.865Z,3.28
2022-10-28T00:34:42.274Z,3.40
2022-10-28T00:37:08.693Z,3.50
2022-10-28T00:39:35.120Z,3.60
2022-10-28T00:42:04.404Z,3.47
2022-10-28T00:44:48.572Z,3.72
2022-10-28T00:47:32.715Z,3.58
2022-10-28T00:50:24.117Z,3.20
2022-10-28T00:52:55.364Z,3.60
2022-10-28T00:55:22.349Z,3.50
2022-10-28T00:57:49.803Z,3.75
2022-10-28T01:00:16.706Z,3.22
2022-10-28T01:02:46.160Z,3.75
2022-10-28T01:05:14.894Z,2.83
2022-10-28T01:07:41.545Z,2.78
2022-10-28T01:10:08.743Z,3.40
2022-10-28T01:12:45.886Z,2.90
2022-10-28T01:15:30.881Z,3.58
2022-10-28T01:18:03.176Z,3.63
2022-10-28T01:20:40.872Z,3.25
2022-10-28T01:23:27.518Z,3.50
2022-10-28T01:26:27.668Z,3.20
2022-10-28T01:29:31.571Z,3.95
2022-10-28T01:32:01.953Z,3.75
2022-10-28T01:34:33.236Z,3.47
2022-10-28T01:37:21.696Z,3.40
2022-10-28T01:39:55.165Z,3.80
2022-10-28T01:42:32.558Z,3.30
2022-10-28T01:45:17.662Z,3.20
2022-10-28T01:47:55.673Z,3.22
2022-10-28T01:50:28.937Z,4.10
2022-10-28T01:52:57.642Z,3.72
2022-10-28T01:55:27.427Z,3.80
2022-10-28T01:57:56.772Z,3.50
2022-10-28T02:00:23.293Z,3.60
2022-10-28T02:02:50.982Z,3.13
2022-10-28T02:05:36.367Z,3.53
2022-10-28T02:08:11.060Z,3.38
2022-10-28T02:10:40.806Z,3.30
2022-10-28T02:13:12.587Z,3.05
2022-10-28T02:15:48.836Z,2.90
2022-10-28T02:18:24.055Z,3.22
2022-10-28T02:20:57.668Z,3.13
2022-10-28T02:23:41.477Z,3.03
2022-10-28T02:26:14.043Z,2.60
2022-10-28T02:28:49.695Z,3.05
2022-10-28T02:31:22.103Z,3.00
2022-10-28T02:33:51.885Z,3.17
2022-10-28T02:36:19.913Z,3.35
2022-10-28T02:38:49.560Z,3.10
2022-10-28T02:41:30.943Z,3.53
2022-10-28T02:44:02.078Z,2.95
2022-10-28T02:46:29.860Z,3.60
2022-10-28T02:49:03.421Z,3.17
2022-10-28T02:51:34.596Z,2.95
2022-10-28T02:54:03.900Z,3.42
2022-10-28T02:56:31.977Z,3.50
2022-10-28T02:58:58.400Z,3.58
2022-10-28T03:01:24.994Z,3.08
2022-10-28T03:03:51.533Z,3.80
2022-10-28T03:06:18.240Z,3.42
2022-10-28T03:08:44.658Z,3.35
2022-10-28T03:11:11.071Z,3.22
2022-10-28T03:13:37.533Z,3.38
2022-10-28T03:16:04.105Z,3.25
2022-10-28T03:18:30.516Z,3.20
2022-10-28T03:20:59.065Z,3.20
2022-10-28T03:23:25.694Z,3.38
2022-10-28T03:25:52.127Z,3.67
2022-10-28T03:28:18.534Z,2.97
2022-10-28T03:30:44.942Z,3.70
2022-10-28T03:33:11.373Z,3.17
2022-10-28T03:35:37.783Z,3.40
2022-10-28T03:38:04.285Z,3.22
2022-10-28T03:40:30.894Z,3.70
2022-10-28T03:42:57.322Z,3.28
2022-10-28T03:45:23.763Z,3.22
2022-10-28T03:47:50.332Z,3.90
2022-10-28T03:50:16.919Z,4.18
2022-10-28T03:52:44.580Z,4.03
2022-10-28T03:55:11.066Z,3.67
2022-10-28T03:57:37.550Z,3.67
2022-10-28T04:00:05.175Z,3.15
2022-10-28T04:02:31.638Z,3.65
2022-10-28T04:04:58.049Z,3.50
2022-10-28T04:07:24.533Z,3.55
2022-10-28T04:09:51.439Z,3.38
2022-10-28T04:12:18.312Z,3.80
2022-10-28T04:14:44.714Z,3.78
2022-10-28T04:17:11.154Z,3.40
2022-10-28T04:19:37.558Z,3.63
2022-10-28T04:22:03.952Z,3.75
2022-10-28T04:24:30.430Z,4.68
2022-10-28T04:26:56.864Z,4.50
2022-10-28T04:29:23.271Z,4.20
2022-10-28T04:31:52.152Z,4.15
2022-10-28T04:34:18.921Z,3.90
2022-10-28T04:36:45.325Z,4.50
2022-10-28T04:39:11.721Z,4.20
2022-10-28T04:41:38.138Z,4.32
2022-10-28T04:44:04.628Z,4.45
2022-10-28T04:46:31.026Z,5.18
2022-10-28T04:48:57.429Z,4.32
2022-10-28T04:51:23.858Z,4.50
2022-10-28T04:53:50.250Z,4.15
2022-10-28T04:56:16.734Z,4.35
2022-10-28T04:58:43.204Z,4.32
2022-10-28T05:01:10.330Z,4.07
2022-10-28T05:03:36.842Z,4.55
2022-10-28T05:06:04.278Z,4.20
2022-10-28T05:08:30.693Z,4.13
2022-10-28T05:10:57.135Z,4.30
2022-10-28T05:13:23.538Z,4.05
2022-10-28T05:15:50.727Z,3.92
2022-10-28T05:18:17.851Z,3.80
2022-10-28T05:20:44.282Z,3.92
2022-10-28T05:23:10.703Z,3.90
2022-10-28T05:25:37.139Z,3.50
2022-10-28T05:28:04.762Z,3.70
2022-10-28T05:30:31.148Z,4.38
2022-10-28T05:33:02.440Z,3.30
2022-10-28T05:35:30.179Z,3.65
2022-10-28T05:37:57.075Z,3.47
2022-10-28T05:40:23.748Z,3.90
2022-10-28T05:42:50.276Z,4.63
2022-10-28T05:45:16.912Z,4.20
2022-10-28T05:47:47.230Z,4.00
2022-10-28T05:50:15.281Z,4.00
2022-10-28T05:52:52.511Z,4.07
2022-10-28T05:55:20.117Z,4.10
2022-10-28T05:57:50.448Z,3.83
2022-10-28T06:00:18.973Z,4.38
2022-10-28T06:02:45.579Z,4.00
2022-10-28T06:05:12.380Z,3.88
2022-10-28T06:07:39.799Z,4.25
2022-10-28T06:10:07.580Z,4.50
2022-10-28T06:15:04.125Z,3.80
2022-10-28T06:17:30.559Z,3.85
2022-10-28T06:19:57.002Z,3.55
2022-10-28T06:22:23.482Z,3.75
2022-10-28T06:24:49.882Z,3.80
2022-10-28T06:27:16.276Z,3.72
2022-10-28T06:29:42.730Z,3.88
2022-10-28T06:32:09.352Z,3.88
2022-10-28T06:34:37.597Z,3.63
2022-10-28T06:37:05.533Z,4.03
2022-10-28T06:39:32.585Z,3.95
2022-10-28T06:41:59.179Z,3.78
2022-10-28T06:44:25.721Z,3.90
2022-10-28T06:46:53.623Z,3.20
2022-10-28T06:49:20.152Z,4.00
2022-10-28T06:51:46.564Z,3.92
2022-10-28T06:54:12.977Z,3.35
2022-10-28T06:56:39.386Z,4.43
2022-10-28T06:59:05.871Z,3.88
2022-10-28T07:01:32.393Z,4.05
2022-10-28T07:03:59.008Z,3.95
2022-10-28T07:06:25.400Z,3.88
2022-10-28T07:08:51.881Z,3.63
2022-10-28T07:11:18.952Z,4.20
2022-10-28T07:13:48.116Z,3.72
2022-10-28T07:16:15.442Z,3.50
2022-10-28T07:18:41.842Z,4.65
2022-10-28T07:21:08.233Z,4.25
2022-10-28T07:23:34.932Z,3.97
2022-10-28T07:26:02.379Z,4.32
2022-10-28T07:28:29.132Z,4.07
2022-10-28T07:30:55.599Z,3.83
2022-10-28T07:33:22.151Z,3.97
2022-10-28T07:35:48.669Z,3.78
2022-10-28T07:38:15.156Z,3.25
2022-10-28T07:40:42.559Z,3.75
2022-10-28T07:43:09.008Z,4.63
2022-10-28T07:45:36.098Z,3.72
2022-10-28T07:48:03.372Z,3.88
2022-10-28T07:50:29.827Z,4.28
2022-10-28T07:52:56.679Z,4.22
2022-10-28T07:55:23.523Z,3.97
2022-10-28T07:57:49.930Z,4.25
2022-10-28T08:00:16.500Z,3.85
2022-10-28T08:02:42.933Z,4.30
2022-10-28T08:05:09.845Z,4.63
2022-10-28T08:07:38.619Z,4.30
2022-10-28T08:10:05.850Z,3.55
2022-10-28T08:12:32.340Z,3.78
2022-10-28T08:14:58.757Z,4.03
2022-10-28T08:17:25.238Z,3.65
2022-10-28T08:19:51.627Z,3.92
2022-10-28T08:22:18.550Z,4.10
2022-10-28T08:24:44.953Z,3.55
2022-10-28T08:27:11.453Z,3.80
2022-10-28T08:29:37.962Z,2.90
2022-10-28T08:32:04.465Z,3.30
2022-10-28T08:34:31.351Z,3.38
2022-10-28T08:36:57.979Z,3.47
2022-10-28T08:39:24.539Z,3.70
2022-10-28T08:42:14.344Z,3.35
2022-10-28T08:44:56.707Z,3.30
2022-10-28T08:47:32.068Z,3.40
2022-10-28T08:50:06.113Z,3.53
2022-10-28T08:52:43.580Z,2.85
2022-10-28T08:55:23.487Z,2.95
2022-10-28T08:57:56.040Z,3.50
2022-10-28T09:00:23.565Z,3.35
2022-10-28T09:03:13.739Z,3.03
2022-10-28T09:05:41.508Z,3.20
2022-10-28T09:08:25.576Z,3.00
2022-10-28T09:11:10.224Z,3.47
2022-10-28T09:13:48.878Z,3.63
2022-10-28T09:16:24.366Z,10.30
2022-10-28T09:18:56.360Z,4.90
2022-10-28T09:21:33.041Z,3.63
2022-10-28T09:24:03.316Z,3.85
2022-10-28T09:26:36.041Z,3.17
2022-10-28T09:29:33.427Z,3.35
2022-10-28T09:32:32.193Z,3.22
2022-10-28T09:35:03.487Z,3.47
2022-10-28T09:37:35.336Z,4.20
2022-10-28T09:40:07.170Z,3.58
2022-10-28T09:45:14.987Z,3.40
2022-10-28T09:47:43.725Z,3.45
2022-10-28T09:50:18.015Z,3.25
2022-10-28T09:52:50.617Z,3.60
2022-10-28T09:55:20.391Z,3.20
2022-10-28T09:57:46.821Z,3.00
2022-10-28T10:00:14.423Z,3.03
2022-10-28T10:02:42.613Z,3.22
2022-10-28T10:05:16.971Z,3.08
2022-10-28T10:08:04.964Z,2.97
2022-10-28T10:10:34.848Z,3.05
2022-10-28T10:13:03.616Z,3.60
2022-10-28T10:15:37.280Z,2.90
2022-10-28T10:18:05.897Z,2.85
2022-10-28T10:20:55.770Z,3.20
2022-10-28T10:23:24.452Z,2.92
2022-10-28T10:26:01.900Z,2.95
2022-10-28T10:28:28.781Z,3.30
2022-10-28T10:30:57.898Z,2.67
2022-10-28T10:33:35.649Z,3.05
2022-10-28T10:36:05.345Z,3.25
2022-10-28T10:38:32.250Z,2.88
2022-10-28T10:40:58.708Z,2.85
2022-10-28T10:43:36.065Z,3.28
2022-10-28T10:46:05.466Z,2.65
2022-10-28T10:48:35.991Z,3.03
2022-10-28T10:51:08.147Z,3.30
2022-10-28T10:53:36.151Z,2.72
2022-10-28T10:56:04.982Z,2.75
2022-10-28T10:58:34.593Z,2.50
2022-10-28T11:01:04.201Z,2.70
2022-10-28T11:03:36.578Z,2.90
2022-10-28T11:06:22.623Z,2.50
2022-10-28T11:08:55.525Z,2.80
2022-10-28T11:11:23.026Z,2.85
2022-10-28T11:14:03.429Z,2.90
2022-10-28T11:16:29.841Z,3.10
2022-10-28T11:18:56.270Z,3.10
2022-10-28T11:21:37.541Z,2.80
2022-10-28T11:24:17.221Z,3.03
2022-10-28T11:26:52.051Z,3.28
2022-10-28T11:29:18.468Z,3.17
2022-10-28T11:32:15.736Z,2.53
2022-10-28T11:34:51.788Z,2.75
2022-10-28T11:37:43.342Z,2.80
2022-10-28T11:40:38.404Z,2.30
2022-10-28T11:43:23.472Z,2.78
2022-10-28T11:46:05.396Z,2.20
2022-10-28T11:48:58.155Z,2.33
2022-10-28T11:51:45.947Z,2.55
2022-10-28T11:54:34.001Z,2.83
2022-10-28T11:57:07.781Z,2.80
2022-10-28T11:59:48.886Z,2.65
2022-10-28T12:02:25.379Z,2.45
2022-10-28T12:05:13.207Z,2.72
2022-10-28T12:07:52.133Z,2.47
2022-10-28T12:11:00.152Z,2.30
2022-10-28T12:13:49.433Z,2.28
2022-10-28T12:16:30.394Z,2.20
2022-10-28T12:19:00.188Z,1.90
2022-10-28T12:24:12.120Z,2.33
2022-10-28T12:26:44.339Z,1.83
2022-10-28T12:29:23.254Z,2.20
2022-10-28T12:32:03.960Z,1.85
2022-10-28T12:34:38.734Z,2.25
2022-10-28T12:37:11.594Z,2.58
2022-10-28T12:39:45.432Z,1.92
2022-10-28T12:42:16.733Z,1.90
2022-10-28T12:44:43.602Z,1.58
2022-10-28T12:47:22.035Z,1.98
2022-10-28T12:49:57.715Z,1.73
2022-10-28T12:52:30.172Z,1.98
2022-10-28T12:55:09.135Z,1.65
2022-10-28T12:57:37.477Z,2.03
2022-10-28T13:00:18.055Z,1.45
2022-10-28T13:02:54.861Z,1.88
2022-10-28T13:05:27.838Z,1.95
2022-10-28T13:08:38.890Z,1.95
2022-10-28T13:11:20.619Z,1.90
2022-10-28T13:14:13.281Z,2.20
2022-10-28T13:17:01.410Z,1.65
2022-10-28T13:19:52.583Z,2.00
2022-10-28T13:22:41.865Z,2.20
2022-10-28T13:25:26.317Z,1.77
2022-10-28T13:27:59.569Z,1.60
2022-10-28T13:30:26.719Z,1.90
2022-10-28T13:33:07.905Z,2.00
2022-10-28T13:35:35.025Z,1.67
2022-10-28T13:38:01.834Z,1.73
2022-10-28T13:40:31.136Z,1.73
2022-10-28T13:43:01.443Z,2.08
2022-10-28T13:45:49.417Z,1.70
2022-10-28T13:48:43.292Z,2.10
2022-10-28T13:51:09.572Z,2.08
2022-10-28T13:53:45.103Z,2.00
2022-10-28T13:56:16.037Z,1.90
2022-10-28T13:58:50.413Z,1.77
2022-10-28T14:01:39.222Z,1.88
2022-10-28T14:04:06.173Z,2.25
2022-10-28T14:06:34.451Z,1.98
2022-10-28T14:09:01.157Z,2.05
2022-10-28T14:11:29.165Z,1.92
2022-10-28T14:13:59.988Z,1.80
2022-10-28T14:16:30.360Z,2.33
2022-10-28T14:19:15.034Z,2.28
2022-10-28T14:21:45.337Z,2.10
2022-10-28T14:24:37.371Z,1.60
2022-10-28T14:27:03.712Z,1.80
2022-10-28T14:29:30.153Z,2.20
2022-10-28T14:31:56.569Z,1.77
2022-10-28T14:34:22.875Z,2.10
2022-10-28T14:36:59.949Z,1.77
2022-10-28T14:39:40.395Z,1.63
2022-10-28T14:42:44.393Z,2.05
2022-10-28T14:45:19.708Z,1.80
2022-10-28T14:48:07.920Z,1.90
2022-10-28T14:50:40.710Z,1.80
2022-10-28T14:53:14.164Z,1.73
2022-10-28T14:55:45.011Z,1.65
2022-10-28T14:58:21.865Z,1.60
2022-10-28T15:01:18.993Z,1.52
2022-10-28T15:03:47.892Z,1.67
2022-10-28T15:06:27.296Z,2.00
2022-10-28T15:08:54.719Z,1.92
2022-10-28T15:11:21.653Z,2.20
2022-10-28T15:13:51.402Z,2.03
2022-10-28T15:16:25.090Z,1.98
2022-10-28T15:18:53.371Z,1.85
2022-10-28T15:21:21.827Z,1.95
2022-10-28T15:24:06.879Z,1.70
2022-10-28T15:26:33.331Z,1.90
2022-10-28T15:29:00.672Z,1.50
2022-10-28T15:31:27.147Z,1.77
2022-10-28T15:33:53.554Z,1.70
2022-10-28T15:36:22.374Z,1.63
2022-10-28T15:38:50.284Z,1.60
2022-10-28T15:41:22.729Z,1.98
2022-10-28T15:44:02.517Z,2.00
2022-10-28T15:46:29.764Z,1.95
2022-10-28T15:49:01.014Z,2.22
2022-10-28T15:51:27.914Z,1.92
2022-10-28T15:53:57.006Z,2.55
2022-10-28T15:56:24.999Z,2.53
2022-10-28T15:59:04.321Z,2.20
2022-10-28T16:01:38.588Z,1.92
2022-10-28T16:04:06.989Z,2.13
2022-10-28T16:06:36.118Z,2.42
2022-10-28T16:09:17.359Z,2.58
2022-10-28T16:11:49.245Z,2.40
2022-10-28T16:14:37.552Z,2.30
2022-10-28T16:17:10.937Z,2.35
2022-10-28T16:19:43.963Z,2.42
2022-10-28T16:22:14.032Z,2.17
2022-10-28T16:24:41.213Z,3.30
2022-10-28T16:27:16.749Z,3.97
2022-10-28T16:29:43.177Z,3.65
2022-10-28T16:32:13.571Z,2.88
2022-10-28T16:34:40.191Z,3.05
2022-10-28T16:37:22.002Z,2.70
2022-10-28T16:39:48.475Z,2.88
2022-10-28T16:42:15.505Z,2.83
2022-10-28T16:44:41.939Z,3.03
2022-10-28T16:47:13.498Z,2.63
2022-10-28T16:49:40.551Z,3.05
2022-10-28T16:52:14.379Z,2.63
2022-10-28T16:54:40.793Z,2.80
2022-10-28T16:57:07.242Z,2.45
2022-10-28T16:59:33.672Z,2.53
2022-10-28T17:02:00.206Z,2.58
2022-10-28T17:04:26.746Z,2.40
2022-10-28T17:06:53.166Z,2.70
2022-10-28T17:09:19.564Z,3.00
2022-10-28T17:11:46.091Z,2.50
2022-10-28T17:14:12.481Z,2.97
2022-10-28T17:16:42.286Z,3.08
2022-10-28T17:19:09.967Z,2.60
2022-10-28T17:21:36.364Z,3.28
2022-10-28T17:24:04.286Z,3.85
2022-10-28T17:26:30.734Z,4.13
2022-10-28T17:28:57.144Z,3.88
2022-10-28T17:31:25.169Z,3.40
2022-10-28T17:33:55.672Z,3.30
2022-10-28T17:36:23.146Z,3.92
2022-10-28T17:38:49.732Z,4.05
2022-10-28T17:41:16.150Z,3.10
2022-10-28T17:43:42.535Z,4.10
2022-10-28T17:46:09.830Z,3.78
2022-10-28T17:48:36.327Z,3.85
2022-10-28T17:51:02.846Z,4.07
2022-10-28T17:53:29.265Z,4.00
2022-10-28T17:55:59.598Z,3.78
2022-10-28T17:58:26.365Z,4.25
2022-10-28T18:00:59.534Z,4.28
2022-10-28T18:03:26.936Z,4.18
2022-10-28T18:05:53.618Z,4.28
2022-10-28T18:08:23.466Z,4.43
2022-10-28T18:10:54.741Z,4.65
2022-10-28T18:13:32.328Z,4.68
2022-10-28T18:16:10.944Z,4.95
2022-10-28T18:18:42.039Z,4.72
2022-10-28T18:21:10.459Z,4.55
2022-10-28T18:23:36.996Z,5.72
2022-10-28T18:26:09.320Z,5.50
2022-10-28T18:28:36.369Z,6.07
2022-10-28T18:31:16.315Z,6.55
2022-10-28T18:33:43.707Z,6.53
2022-10-28T18:36:12.026Z,6.20
2022-10-28T18:38:38.701Z,6.00
2022-10-28T18:41:11.544Z,6.20
2022-10-28T18:43:38.698Z,5.57
2022-10-28T18:46:05.254Z,5.95
2022-10-28T18:48:31.717Z,5.95
2022-10-28T18:50:59.987Z,6.05
2022-10-28T18:53:26.995Z,5.43
2022-10-28T18:55:59.946Z,5.63
2022-10-28T18:58:27.174Z,4.78
2022-10-28T19:00:53.572Z,4.78
2022-10-28T19:03:22.530Z,4.75
2022-10-28T19:05:49.520Z,4.30
2022-10-28T19:08:15.965Z,3.90
2022-10-28T19:10:42.443Z,4.28
2022-10-28T19:13:08.879Z,3.35
2022-10-28T19:15:40.014Z,3.50
2022-10-28T19:18:06.465Z,2.83
2022-10-28T19:20:32.973Z,2.80
2022-10-28T19:23:01.031Z,2.53
2022-10-28T19:25:27.477Z,2.67
2022-10-28T19:27:53.917Z,2.58
2022-10-28T19:30:20.317Z,3.30
2022-10-28T19:32:46.770Z,2.85
2022-10-28T19:35:13.808Z,3.70
2022-10-28T19:37:40.233Z,2.47
2022-10-28T19:40:07.287Z,2.85
2022-10-28T19:42:33.705Z,2.78
2022-10-28T19:45:01.298Z,3.13
2022-10-28T19:47:27.746Z,2.75
2022-10-28T19:49:54.223Z,2.10
2022-10-28T19:52:20.698Z,2.45
2022-10-28T19:54:47.113Z,2.35
2022-10-28T19:59:44.836Z,2.30
2022-10-28T20:02:11.666Z,3.05
2022-10-28T20:04:39.257Z,2.72
2022-10-28T20:07:05.646Z,2.67
2022-10-28T20:09:32.036Z,3.10
2022-10-28T20:11:58.509Z,3.22
2022-10-28T20:14:25.110Z,2.38
2022-10-28T20:16:51.559Z,2.70
2022-10-28T20:19:17.978Z,2.33
2022-10-28T20:21:45.098Z,2.78
2022-10-28T20:24:11.511Z,2.75
2022-10-28T20:26:38.835Z,3.25
2022-10-28T20:29:06.788Z,2.63
2022-10-28T20:31:33.445Z,2.30
2022-10-28T20:34:03.409Z,2.75
2022-10-28T20:36:41.149Z,2.55
2022-10-28T20:39:12.823Z,2.97
2022-10-28T20:41:40.409Z,2.70
2022-10-28T20:44:07.260Z,2.33
2022-10-28T20:46:34.007Z,2.83
2022-10-28T20:49:00.844Z,2.90
2022-10-28T20:51:29.331Z,3.78
2022-10-28T20:53:55.799Z,3.22
2022-10-28T20:56:24.030Z,3.53
2022-10-28T20:58:51.000Z,2.95
2022-10-28T21:01:20.749Z,3.25
2022-10-28T21:03:47.772Z,2.95
2022-10-28T21:06:16.043Z,3.08
2022-10-28T21:08:43.079Z,3.05
2022-10-28T21:11:12.455Z,3.90
2022-10-28T21:13:39.108Z,3.10
2022-10-28T21:16:07.077Z,3.47
2022-10-28T21:18:33.760Z,2.85
2022-10-28T21:21:00.624Z,2.95
2022-10-28T21:23:28.045Z,3.00
2022-10-28T21:26:00.145Z,3.00
2022-10-28T21:28:28.604Z,2.67
2022-10-28T21:31:02.825Z,2.90
2022-10-28T21:33:29.251Z,3.15
2022-10-28T21:36:00.337Z,3.17
2022-10-28T21:38:27.904Z,2.80
2022-10-28T21:41:02.113Z,2.72
2022-10-28T21:43:33.923Z,2.92
2022-10-28T21:46:00.615Z,2.65
2022-10-28T21:48:28.341Z,2.97
2022-10-28T21:50:57.019Z,2.53
2022-10-28T21:53:23.885Z,3.25
2022-10-28T21:55:51.361Z,3.22
2022-10-28T21:58:18.693Z,2.90
2022-10-28T22:00:45.712Z,3.08
2022-10-28T22:03:13.246Z,2.55
2022-10-28T22:05:39.695Z,2.50
2022-10-28T22:08:06.136Z,2.63
2022-10-28T22:10:32.566Z,2.40
2022-10-28T22:12:58.989Z,3.10
2022-10-28T22:15:25.475Z,2.40
2022-10-28T22:17:51.870Z,2.88
2022-10-28T22:20:18.339Z,2.78
2022-10-28T22:22:44.798Z,2.58
2022-10-28T22:25:11.262Z,2.90
2022-10-28T22:27:37.722Z,3.00
2022-10-28T22:30:04.635Z,2.20
2022-10-28T22:32:31.052Z,3.05
2022-10-28T22:34:57.473Z,3.17
2022-10-28T22:37:23.893Z,3.05
2022-10-28T22:39:50.332Z,3.08
2022-10-28T22:42:16.730Z,2.65
2022-10-28T22:44:43.201Z,2.80
2022-10-28T22:47:09.653Z,2.50
2022-10-28T22:49:36.097Z,2.38
2022-10-28T22:52:02.513Z,2.47
2022-10-28T22:54:28.938Z,3.28
2022-10-28T22:56:55.338Z,2.80
2022-10-28T22:59:21.842Z,2.60
2022-10-28T23:01:48.435Z,2.90
2022-10-28T23:04:15.089Z,3.13
2022-10-28T23:06:41.548Z,3.35
2022-10-28T23:09:07.972Z,2.95
2022-10-28T23:11:34.425Z,3.15
2022-10-28T23:14:00.832Z,3.20
2022-10-28T23:16:27.218Z,2.67
2022-10-28T23:18:53.690Z,2.97
2022-10-28T23:21:25.307Z,3.00
2022-10-28T23:23:56.544Z,2.85
2022-10-28T23:26:23.343Z,3.22
2022-10-28T23:28:51.627Z,3.53
2022-10-28T23:31:18.543Z,3.22
2022-10-28T23:33:44.956Z,3.40
2022-10-28T23:36:12.684Z,3.38
2022-10-28T23:38:39.246Z,3.10
2022-10-28T23:41:10.591Z,4.20
2022-10-28T23:43:37.777Z,3.55
2022-10-28T23:46:04.696Z,3.72
2022-10-28T23:48:31.501Z,3.75
2022-10-28T23:50:58.118Z,4.00
2022-10-28T23:53:24.889Z,4.20
2022-10-28T23:55:51.740Z,3.58
2022-10-28T23:58:20.083Z,3.30
